sensor_id;sensor_type;location;lat;lon;timestamp;P1;durP1;ratioP1;P2;durP2;ratioP2
23590;SDS011;11973;52.098;7.582;2023-07-29T05:18:10;14.55;;;13.27;;
23590;SDS011;11973;52.098;7.582;2023-07-29T05:20:36;14.23;;;13.23;;
23590;SDS011;11973;52.098;7.582;2023-07-29T05:23:02;14.68;;;13.20;;
23590;SDS011;11973;52.098;7.582;2023-07-29T05:25:28;14.05;;;13.00;;
23590;SDS011;11973;52.098;7.582;2023-07-29T05:27:54;14.40;;;13.32;;
23590;SDS011;11973;52.098;7.582;2023-07-29T05:30:20;15.18;;;14.00;;
23590;SDS011;11973;52.098;7.582;2023-07-29T05:32:46;15.02;;;13.82;;
23590;SDS011;11973;52.098;7.582;2023-07-29T05:35:12;15.60;;;14.40;;
23590;SDS011;11973;52.098;7.582;2023-07-29T05:37:38;16.85;;;15.27;;
23590;SDS011;11973;52.098;7.582;2023-07-29T05:40:05;16.75;;;15.40;;
23590;SDS011;11973;52.098;7.582;2023-07-29T05:42:32;16.63;;;15.32;;
23590;SDS011;11973;52.098;7.582;2023-07-29T05:44:59;17.00;;;15.60;;
23590;SDS011;11973;52.098;7.582;2023-07-29T05:47:25;17.20;;;15.90;;
23590;SDS011;11973;52.098;7.582;2023-07-29T05:49:51;16.20;;;14.80;;
23590;SDS011;11973;52.098;7.582;2023-07-29T05:52:18;16.65;;;15.00;;
23590;SDS011;11973;52.098;7.582;2023-07-29T05:54:44;16.88;;;15.48;;
23590;SDS011;11973;52.098;7.582;2023-07-29T05:57:13;18.02;;;16.20;;
23590;SDS011;11973;52.098;7.582;2023-07-29T05:59:39;17.30;;;15.90;;
23590;SDS011;11973;52.098;7.582;2023-07-29T06:02:05;18.42;;;16.83;;
23590;SDS011;11973;52.098;7.582;2023-07-29T06:04:31;18.33;;;16.83;;
23590;SDS011;11973;52.098;7.582;2023-07-29T06:06:57;17.63;;;16.08;;
23590;SDS011;11973;52.098;7.582;2023-07-29T06:09:23;17.80;;;16.30;;
23590;SDS011;11973;52.098;7.582;2023-07-29T06:11:50;17.48;;;16.17;;
23590;SDS011;11973;52.098;7.582;2023-07-29T06:14:16;18.48;;;16.70;;
23590;SDS011;11973;52.098;7.582;2023-07-29T06:16:42;17.35;;;15.98;;
23590;SDS011;11973;52.098;7.582;2023-07-29T06:19:08;17.10;;;15.70;;
23590;SDS011;11973;52.098;7.582;2023-07-29T06:21:35;18.35;;;16.88;;
23590;SDS011;11973;52.098;7.582;2023-07-29T06:24:01;19.00;;;17.35;;
23590;SDS011;11973;52.098;7.582;2023-07-29T06:26:27;17.60;;;15.80;;
23590;SDS011;11973;52.098;7.582;2023-07-29T06:28:56;17.70;;;16.33;;
23590;SDS011;11973;52.098;7.582;2023-07-29T06:31:22;17.38;;;16.00;;
23590;SDS011;11973;52.098;7.582;2023-07-29T06:33:47;16.83;;;15.48;;
23590;SDS011;11973;52.098;7.582;2023-07-29T06:36:13;13.60;;;12.68;;
23590;SDS011;11973;52.098;7.582;2023-07-29T06:38:39;13.77;;;12.70;;
23590;SDS011;11973;52.098;7.582;2023-07-29T06:41:06;12.00;;;11.30;;
23590;SDS011;11973;52.098;7.582;2023-07-29T06:43:31;11.95;;;11.15;;
23590;SDS011;11973;52.098;7.582;2023-07-29T06:45:57;8.90;;;8.50;;
23590;SDS011;11973;52.098;7.582;2023-07-29T06:48:23;6.18;;;6.07;;
23590;SDS011;11973;52.098;7.582;2023-07-29T06:50:49;4.97;;;4.80;;
23590;SDS011;11973;52.098;7.582;2023-07-29T06:53:15;4.65;;;4.55;;
23590;SDS011;11973;52.098;7.582;2023-07-29T06:55:42;2.25;;;2.25;;
23590;SDS011;11973;52.098;7.582;2023-07-29T06:58:08;2.60;;;1.17;;
23590;SDS011;11973;52.098;7.582;2023-07-29T07:00:34;1.15;;;1.15;;
23590;SDS011;11973;52.098;7.582;2023-07-29T07:03:00;0.98;;;0.98;;
23590;SDS011;11973;52.098;7.582;2023-07-29T07:05:26;1.40;;;0.70;;
23590;SDS011;11973;52.098;7.582;2023-07-29T07:07:52;0.70;;;0.70;;
23590;SDS011;11973;52.098;7.582;2023-07-29T07:10:17;0.60;;;0.60;;
23590;SDS011;11973;52.098;7.582;2023-07-29T07:12:43;0.68;;;0.68;;
23590;SDS011;11973;52.098;7.582;2023-07-29T07:15:09;0.70;;;0.70;;
23590;SDS011;11973;52.098;7.582;2023-07-29T07:17:35;0.80;;;0.80;;
23590;SDS011;11973;52.098;7.582;2023-07-29T07:20:00;0.70;;;0.60;;
23590;SDS011;11973;52.098;7.582;2023-07-29T07:22:26;0.70;;;0.70;;
23590;SDS011;11973;52.098;7.582;2023-07-29T07:24:52;0.80;;;0.80;;
23590;SDS011;11973;52.098;7.582;2023-07-29T07:27:18;0.70;;;0.70;;
23590;SDS011;11973;52.098;7.582;2023-07-29T07:29:44;1.23;;;1.23;;
23590;SDS011;11973;52.098;7.582;2023-07-29T07:32:09;0.60;;;0.60;;
23590;SDS011;11973;52.098;7.582;2023-07-29T07:34:35;0.70;;;0.70;;
23590;SDS011;11973;52.098;7.582;2023-07-29T07:37:01;0.80;;;0.80;;
23590;SDS011;11973;52.098;7.582;2023-07-29T07:39:26;0.80;;;0.80;;
23590;SDS011;11973;52.098;7.582;2023-07-29T07:41:52;1.27;;;0.70;;
23590;SDS011;11973;52.098;7.582;2023-07-29T07:44:18;0.82;;;0.82;;
23590;SDS011;11973;52.098;7.582;2023-07-29T07:46:45;1.00;;;1.00;;
23590;SDS011;11973;52.098;7.582;2023-07-29T07:49:10;0.70;;;0.70;;
23590;SDS011;11973;52.098;7.582;2023-07-29T07:51:37;0.80;;;0.80;;
23590;SDS011;11973;52.098;7.582;2023-07-29T07:54:03;0.80;;;0.80;;
23590;SDS011;11973;52.098;7.582;2023-07-29T07:56:29;1.10;;;1.00;;
23590;SDS011;11973;52.098;7.582;2023-07-29T07:58:55;0.82;;;0.82;;
23590;SDS011;11973;52.098;7.582;2023-07-29T08:01:20;0.90;;;0.90;;
23590;SDS011;11973;52.098;7.582;2023-07-29T08:03:46;1.27;;;0.90;;
23590;SDS011;11973;52.098;7.582;2023-07-29T08:06:12;1.02;;;0.82;;
23590;SDS011;11973;52.098;7.582;2023-07-29T08:08:38;0.88;;;0.88;;
23590;SDS011;11973;52.098;7.582;2023-07-29T08:11:03;1.30;;;1.02;;
23590;SDS011;11973;52.098;7.582;2023-07-29T08:13:29;1.20;;;1.10;;
23590;SDS011;11973;52.098;7.582;2023-07-29T08:15:55;1.10;;;1.10;;
23590;SDS011;11973;52.098;7.582;2023-07-29T08:18:20;1.20;;;1.20;;
23590;SDS011;11973;52.098;7.582;2023-07-29T08:20:56;1.00;;;1.00;;
23590;SDS011;11973;52.098;7.582;2023-07-29T08:23:26;1.00;;;1.00;;
23590;SDS011;11973;52.098;7.582;2023-07-29T08:25:55;2.03;;;0.90;;
23590;SDS011;11973;52.098;7.582;2023-07-29T08:28:26;1.00;;;1.00;;
23590;SDS011;11973;52.098;7.582;2023-07-29T08:30:57;1.73;;;1.23;;
23590;SDS011;11973;52.098;7.582;2023-07-29T08:33:22;1.75;;;0.90;;
23590;SDS011;11973;52.098;7.582;2023-07-29T08:35:48;1.20;;;1.00;;
23590;SDS011;11973;52.098;7.582;2023-07-29T08:38:14;0.82;;;0.82;;
23590;SDS011;11973;52.098;7.582;2023-07-29T08:41:14;1.05;;;1.05;;
23590;SDS011;11973;52.098;7.582;2023-07-29T08:43:43;0.90;;;0.90;;
23590;SDS011;11973;52.098;7.582;2023-07-29T08:46:27;0.63;;;0.63;;
23590;SDS011;11973;52.098;7.582;2023-07-29T08:48:54;0.85;;;0.85;;
23590;SDS011;11973;52.098;7.582;2023-07-29T08:51:20;0.70;;;0.70;;
23590;SDS011;11973;52.098;7.582;2023-07-29T08:53:48;0.80;;;0.80;;
23590;SDS011;11973;52.098;7.582;2023-07-29T08:56:14;2.47;;;0.80;;
23590;SDS011;11973;52.098;7.582;2023-07-29T08:58:40;1.20;;;0.90;;
23590;SDS011;11973;52.098;7.582;2023-07-29T09:01:07;0.77;;;0.77;;
23590;SDS011;11973;52.098;7.582;2023-07-29T09:03:32;0.98;;;0.98;;
23590;SDS011;11973;52.098;7.582;2023-07-29T09:05:58;0.70;;;0.70;;
23590;SDS011;11973;52.098;7.582;2023-07-29T09:08:26;0.50;;;0.50;;
23590;SDS011;11973;52.098;7.582;2023-07-29T09:10:52;0.95;;;0.50;;
23590;SDS011;11973;52.098;7.582;2023-07-29T09:13:19;0.50;;;0.50;;
23590;SDS011;11973;52.098;7.582;2023-07-29T09:15:45;0.43;;;0.43;;
23590;SDS011;11973;52.098;7.582;2023-07-29T09:18:15;0.40;;;0.40;;
23590;SDS011;11973;52.098;7.582;2023-07-29T09:20:42;0.45;;;0.45;;
23590;SDS011;11973;52.098;7.582;2023-07-29T09:23:09;0.50;;;0.50;;
23590;SDS011;11973;52.098;7.582;2023-07-29T09:25:35;0.40;;;0.40;;
23590;SDS011;11973;52.098;7.582;2023-07-29T09:28:02;0.50;;;0.50;;
23590;SDS011;11973;52.098;7.582;2023-07-29T09:30:40;0.50;;;0.50;;
23590;SDS011;11973;52.098;7.582;2023-07-29T09:33:07;0.60;;;0.60;;
23590;SDS011;11973;52.098;7.582;2023-07-29T09:35:35;0.50;;;0.50;;
23590;SDS011;11973;52.098;7.582;2023-07-29T09:38:02;0.43;;;0.43;;
23590;SDS011;11973;52.098;7.582;2023-07-29T09:40:33;0.60;;;0.60;;
23590;SDS011;11973;52.098;7.582;2023-07-29T09:43:00;0.40;;;0.40;;
23590;SDS011;11973;52.098;7.582;2023-07-29T09:45:26;0.32;;;0.32;;
23590;SDS011;11973;52.098;7.582;2023-07-29T09:47:53;0.30;;;0.30;;
23590;SDS011;11973;52.098;7.582;2023-07-29T09:50:28;0.30;;;0.30;;
23590;SDS011;11973;52.098;7.582;2023-07-29T09:52:55;0.43;;;0.43;;
23590;SDS011;11973;52.098;7.582;2023-07-29T09:55:24;0.30;;;0.30;;
23590;SDS011;11973;52.098;7.582;2023-07-29T09:57:59;0.30;;;0.30;;
23590;SDS011;11973;52.098;7.582;2023-07-29T10:00:33;0.50;;;0.30;;
23590;SDS011;11973;52.098;7.582;2023-07-29T10:03:02;0.50;;;0.30;;
23590;SDS011;11973;52.098;7.582;2023-07-29T10:05:29;1.27;;;0.28;;
23590;SDS011;11973;52.098;7.582;2023-07-29T10:07:55;0.20;;;0.20;;
23590;SDS011;11973;52.098;7.582;2023-07-29T10:10:22;1.08;;;0.30;;
23590;SDS011;11973;52.098;7.582;2023-07-29T10:12:48;0.40;;;0.40;;
23590;SDS011;11973;52.098;7.582;2023-07-29T10:15:14;0.38;;;0.32;;
23590;SDS011;11973;52.098;7.582;2023-07-29T10:17:40;0.40;;;0.40;;
23590;SDS011;11973;52.098;7.582;2023-07-29T10:20:07;0.50;;;0.50;;
23590;SDS011;11973;52.098;7.582;2023-07-29T10:22:42;0.40;;;0.40;;
23590;SDS011;11973;52.098;7.582;2023-07-29T10:25:18;0.50;;;0.50;;
23590;SDS011;11973;52.098;7.582;2023-07-29T10:27:56;0.45;;;0.40;;
23590;SDS011;11973;52.098;7.582;2023-07-29T10:30:30;0.50;;;0.50;;
23590;SDS011;11973;52.098;7.582;2023-07-29T10:32:58;0.47;;;0.47;;
23590;SDS011;11973;52.098;7.582;2023-07-29T10:35:26;0.30;;;0.30;;
23590;SDS011;11973;52.098;7.582;2023-07-29T10:37:52;0.43;;;0.43;;
23590;SDS011;11973;52.098;7.582;2023-07-29T10:40:19;0.40;;;0.40;;
23590;SDS011;11973;52.098;7.582;2023-07-29T10:42:59;0.40;;;0.40;;
23590;SDS011;11973;52.098;7.582;2023-07-29T10:45:36;0.45;;;0.45;;
23590;SDS011;11973;52.098;7.582;2023-07-29T10:48:10;0.50;;;0.50;;
23590;SDS011;11973;52.098;7.582;2023-07-29T10:50:36;0.50;;;0.50;;
23590;SDS011;11973;52.098;7.582;2023-07-29T10:53:02;0.35;;;0.35;;
23590;SDS011;11973;52.098;7.582;2023-07-29T10:55:32;0.35;;;0.35;;
23590;SDS011;11973;52.098;7.582;2023-07-29T10:58:07;0.40;;;0.40;;
23590;SDS011;11973;52.098;7.582;2023-07-29T11:00:38;0.45;;;0.45;;
23590;SDS011;11973;52.098;7.582;2023-07-29T11:03:06;1.90;;;0.50;;
23590;SDS011;11973;52.098;7.582;2023-07-29T11:05:42;0.70;;;0.70;;
23590;SDS011;11973;52.098;7.582;2023-07-29T11:08:19;0.50;;;0.50;;
23590;SDS011;11973;52.098;7.582;2023-07-29T11:11:01;0.55;;;0.55;;
23590;SDS011;11973;52.098;7.582;2023-07-29T11:13:30;0.52;;;0.52;;
23590;SDS011;11973;52.098;7.582;2023-07-29T11:15:56;0.50;;;0.50;;
23590;SDS011;11973;52.098;7.582;2023-07-29T11:18:26;1.98;;;0.50;;
23590;SDS011;11973;52.098;7.582;2023-07-29T11:20:56;0.63;;;0.63;;
23590;SDS011;11973;52.098;7.582;2023-07-29T11:23:27;0.95;;;0.95;;
23590;SDS011;11973;52.098;7.582;2023-07-29T11:26:00;0.80;;;0.80;;
23590;SDS011;11973;52.098;7.582;2023-07-29T11:28:27;0.70;;;0.70;;
23590;SDS011;11973;52.098;7.582;2023-07-29T11:30:53;0.82;;;0.80;;
23590;SDS011;11973;52.098;7.582;2023-07-29T11:33:20;1.00;;;1.00;;
23590;SDS011;11973;52.098;7.582;2023-07-29T11:35:48;0.90;;;0.90;;
23590;SDS011;11973;52.098;7.582;2023-07-29T11:38:15;0.70;;;0.70;;
23590;SDS011;11973;52.098;7.582;2023-07-29T11:40:42;0.70;;;0.70;;
23590;SDS011;11973;52.098;7.582;2023-07-29T11:43:07;1.88;;;0.70;;
23590;SDS011;11973;52.098;7.582;2023-07-29T11:45:33;0.57;;;0.57;;
23590;SDS011;11973;52.098;7.582;2023-07-29T11:48:00;0.60;;;0.60;;
23590;SDS011;11973;52.098;7.582;2023-07-29T11:50:26;0.90;;;0.70;;
23590;SDS011;11973;52.098;7.582;2023-07-29T11:52:52;0.90;;;0.90;;
23590;SDS011;11973;52.098;7.582;2023-07-29T11:55:19;0.50;;;0.50;;
23590;SDS011;11973;52.098;7.582;2023-07-29T11:57:45;0.98;;;0.60;;
23590;SDS011;11973;52.098;7.582;2023-07-29T12:00:16;2.25;;;0.70;;
23590;SDS011;11973;52.098;7.582;2023-07-29T12:02:43;0.70;;;0.70;;
23590;SDS011;11973;52.098;7.582;2023-07-29T12:05:10;0.68;;;0.68;;
23590;SDS011;11973;52.098;7.582;2023-07-29T12:07:38;1.10;;;0.68;;
23590;SDS011;11973;52.098;7.582;2023-07-29T12:10:04;0.60;;;0.60;;
23590;SDS011;11973;52.098;7.582;2023-07-29T12:12:31;0.50;;;0.50;;
23590;SDS011;11973;52.098;7.582;2023-07-29T12:14:57;0.60;;;0.60;;
23590;SDS011;11973;52.098;7.582;2023-07-29T12:17:23;0.70;;;0.70;;
23590;SDS011;11973;52.098;7.582;2023-07-29T12:19:48;0.57;;;0.57;;
23590;SDS011;11973;52.098;7.582;2023-07-29T12:22:19;0.50;;;0.50;;
23590;SDS011;11973;52.098;7.582;2023-07-29T12:24:45;0.60;;;0.60;;
23590;SDS011;11973;52.098;7.582;2023-07-29T12:27:14;0.60;;;0.60;;
23590;SDS011;11973;52.098;7.582;2023-07-29T12:29:43;0.80;;;0.80;;
23590;SDS011;11973;52.098;7.582;2023-07-29T12:32:09;0.60;;;0.60;;
23590;SDS011;11973;52.098;7.582;2023-07-29T12:34:36;0.60;;;0.60;;
23590;SDS011;11973;52.098;7.582;2023-07-29T12:37:04;0.65;;;0.65;;
23590;SDS011;11973;52.098;7.582;2023-07-29T12:39:32;1.52;;;0.60;;
23590;SDS011;11973;52.098;7.582;2023-07-29T12:41:59;0.70;;;0.70;;
23590;SDS011;11973;52.098;7.582;2023-07-29T12:44:30;0.57;;;0.57;;
23590;SDS011;11973;52.098;7.582;2023-07-29T12:46:59;0.60;;;0.60;;
23590;SDS011;11973;52.098;7.582;2023-07-29T12:49:26;0.80;;;0.80;;
23590;SDS011;11973;52.098;7.582;2023-07-29T12:51:53;0.80;;;0.80;;
23590;SDS011;11973;52.098;7.582;2023-07-29T12:54:19;1.35;;;1.00;;
23590;SDS011;11973;52.098;7.582;2023-07-29T12:56:44;0.90;;;0.90;;
23590;SDS011;11973;52.098;7.582;2023-07-29T12:59:10;0.95;;;0.95;;
23590;SDS011;11973;52.098;7.582;2023-07-29T13:01:36;0.80;;;0.80;;
23590;SDS011;11973;52.098;7.582;2023-07-29T13:04:01;0.70;;;0.70;;
23590;SDS011;11973;52.098;7.582;2023-07-29T13:06:27;0.90;;;0.90;;
23590;SDS011;11973;52.098;7.582;2023-07-29T13:08:53;0.90;;;0.90;;
23590;SDS011;11973;52.098;7.582;2023-07-29T13:11:19;0.82;;;0.82;;
23590;SDS011;11973;52.098;7.582;2023-07-29T13:13:44;0.70;;;0.70;;
23590;SDS011;11973;52.098;7.582;2023-07-29T13:16:10;0.90;;;0.90;;
23590;SDS011;11973;52.098;7.582;2023-07-29T13:18:37;0.90;;;0.90;;
23590;SDS011;11973;52.098;7.582;2023-07-29T13:21:02;0.73;;;0.73;;
23590;SDS011;11973;52.098;7.582;2023-07-29T13:23:28;1.40;;;0.60;;
23590;SDS011;11973;52.098;7.582;2023-07-29T13:25:55;0.70;;;0.70;;
23590;SDS011;11973;52.098;7.582;2023-07-29T13:28:21;0.70;;;0.70;;
23590;SDS011;11973;52.098;7.582;2023-07-29T13:30:47;0.73;;;0.73;;
23590;SDS011;11973;52.098;7.582;2023-07-29T13:33:12;0.80;;;0.80;;
23590;SDS011;11973;52.098;7.582;2023-07-29T13:35:38;0.90;;;0.90;;
23590;SDS011;11973;52.098;7.582;2023-07-29T13:38:04;2.58;;;0.85;;
23590;SDS011;11973;52.098;7.582;2023-07-29T13:40:30;1.10;;;0.98;;
23590;SDS011;11973;52.098;7.582;2023-07-29T13:42:57;5.20;;;1.35;;
23590;SDS011;11973;52.098;7.582;2023-07-29T13:45:22;1.88;;;1.73;;
23590;SDS011;11973;52.098;7.582;2023-07-29T13:47:49;1.73;;;1.73;;
23590;SDS011;11973;52.098;7.582;2023-07-29T13:50:15;2.13;;;1.90;;
23590;SDS011;11973;52.098;7.582;2023-07-29T13:52:42;2.38;;;2.17;;
23590;SDS011;11973;52.098;7.582;2023-07-29T13:55:11;2.13;;;2.00;;
23590;SDS011;11973;52.098;7.582;2023-07-29T13:57:38;2.10;;;2.10;;
23590;SDS011;11973;52.098;7.582;2023-07-29T14:00:05;5.38;;;2.28;;
23590;SDS011;11973;52.098;7.582;2023-07-29T14:02:38;2.05;;;1.95;;
23590;SDS011;11973;52.098;7.582;2023-07-29T14:05:03;2.78;;;2.67;;
23590;SDS011;11973;52.098;7.582;2023-07-29T14:07:30;2.47;;;2.47;;
23590;SDS011;11973;52.098;7.582;2023-07-29T14:09:56;2.75;;;2.75;;
23590;SDS011;11973;52.098;7.582;2023-07-29T14:12:21;3.00;;;2.90;;
23590;SDS011;11973;52.098;7.582;2023-07-29T14:14:47;3.03;;;2.83;;
23590;SDS011;11973;52.098;7.582;2023-07-29T14:17:13;2.63;;;2.25;;
23590;SDS011;11973;52.098;7.582;2023-07-29T14:19:38;2.40;;;2.30;;
23590;SDS011;11973;52.098;7.582;2023-07-29T14:22:04;2.03;;;2.03;;
23590;SDS011;11973;52.098;7.582;2023-07-29T14:24:30;2.08;;;1.85;;
23590;SDS011;11973;52.098;7.582;2023-07-29T14:26:56;3.88;;;1.90;;
23590;SDS011;11973;52.098;7.582;2023-07-29T14:29:21;2.10;;;2.05;;
23590;SDS011;11973;52.098;7.582;2023-07-29T14:31:47;1.90;;;1.90;;
23590;SDS011;11973;52.098;7.582;2023-07-29T14:34:13;2.15;;;2.05;;
23590;SDS011;11973;52.098;7.582;2023-07-29T14:36:38;2.00;;;2.00;;
23590;SDS011;11973;52.098;7.582;2023-07-29T14:39:04;3.80;;;2.28;;
23590;SDS011;11973;52.098;7.582;2023-07-29T14:41:30;3.45;;;2.45;;
23590;SDS011;11973;52.098;7.582;2023-07-29T14:43:56;2.42;;;2.42;;
23590;SDS011;11973;52.098;7.582;2023-07-29T14:46:22;1.95;;;1.95;;
23590;SDS011;11973;52.098;7.582;2023-07-29T14:48:48;1.98;;;1.88;;
23590;SDS011;11973;52.098;7.582;2023-07-29T14:51:14;1.83;;;1.77;;
23590;SDS011;11973;52.098;7.582;2023-07-29T14:53:40;2.38;;;1.65;;
23590;SDS011;11973;52.098;7.582;2023-07-29T14:56:05;1.90;;;1.90;;
23590;SDS011;11973;52.098;7.582;2023-07-29T14:58:31;1.88;;;1.88;;
23590;SDS011;11973;52.098;7.582;2023-07-29T15:00:57;1.52;;;1.50;;
23590;SDS011;11973;52.098;7.582;2023-07-29T15:03:23;1.02;;;1.02;;
23590;SDS011;11973;52.098;7.582;2023-07-29T15:05:49;0.82;;;0.82;;
23590;SDS011;11973;52.098;7.582;2023-07-29T15:08:15;1.42;;;1.00;;
23590;SDS011;11973;52.098;7.582;2023-07-29T15:10:44;0.90;;;0.90;;
23590;SDS011;11973;52.098;7.582;2023-07-29T15:13:11;0.60;;;0.60;;
23590;SDS011;11973;52.098;7.582;2023-07-29T15:15:39;0.50;;;0.50;;
23590;SDS011;11973;52.098;7.582;2023-07-29T15:18:06;0.60;;;0.60;;
23590;SDS011;11973;52.098;7.582;2023-07-29T15:20:31;1.50;;;0.65;;
23590;SDS011;11973;52.098;7.582;2023-07-29T15:22:57;0.50;;;0.50;;
23590;SDS011;11973;52.098;7.582;2023-07-29T15:25:23;0.40;;;0.40;;
23590;SDS011;11973;52.098;7.582;2023-07-29T15:27:48;0.75;;;0.60;;
23590;SDS011;11973;52.098;7.582;2023-07-29T15:30:14;0.70;;;0.50;;
23590;SDS011;11973;52.098;7.582;2023-07-29T15:32:40;0.63;;;0.63;;
23590;SDS011;11973;52.098;7.582;2023-07-29T15:35:07;0.55;;;0.55;;
23590;SDS011;11973;52.098;7.582;2023-07-29T15:37:33;1.17;;;0.50;;
23590;SDS011;11973;52.098;7.582;2023-07-29T15:39:59;0.40;;;0.40;;
23590;SDS011;11973;52.098;7.582;2023-07-29T15:42:24;0.50;;;0.50;;
23590;SDS011;11973;52.098;7.582;2023-07-29T15:44:50;0.40;;;0.40;;
23590;SDS011;11973;52.098;7.582;2023-07-29T15:47:16;0.40;;;0.40;;
23590;SDS011;11973;52.098;7.582;2023-07-29T15:49:44;1.02;;;0.40;;
23590;SDS011;11973;52.098;7.582;2023-07-29T15:52:10;0.40;;;0.40;;
23590;SDS011;11973;52.098;7.582;2023-07-29T15:54:39;0.40;;;0.40;;
23590;SDS011;11973;52.098;7.582;2023-07-29T15:57:05;0.28;;;0.28;;
23590;SDS011;11973;52.098;7.582;2023-07-29T15:59:31;0.50;;;0.50;;
23590;SDS011;11973;52.098;7.582;2023-07-29T16:01:56;0.50;;;0.50;;
23590;SDS011;11973;52.098;7.582;2023-07-29T16:04:22;0.43;;;0.43;;
23590;SDS011;11973;52.098;7.582;2023-07-29T16:06:48;2.28;;;0.50;;
23590;SDS011;11973;52.098;7.582;2023-07-29T16:09:14;0.43;;;0.43;;
23590;SDS011;11973;52.098;7.582;2023-07-29T16:11:39;0.40;;;0.40;;
23590;SDS011;11973;52.098;7.582;2023-07-29T16:14:05;0.50;;;0.50;;
23590;SDS011;11973;52.098;7.582;2023-07-29T16:16:31;0.50;;;0.50;;
23590;SDS011;11973;52.098;7.582;2023-07-29T16:18:56;0.40;;;0.40;;
23590;SDS011;11973;52.098;7.582;2023-07-29T16:21:22;0.35;;;0.35;;
23590;SDS011;11973;52.098;7.582;2023-07-29T16:23:48;0.40;;;0.40;;
23590;SDS011;11973;52.098;7.582;2023-07-29T16:26:18;0.40;;;0.40;;
23590;SDS011;11973;52.098;7.582;2023-07-29T16:28:46;0.40;;;0.40;;
23590;SDS011;11973;52.098;7.582;2023-07-29T16:31:13;0.50;;;0.50;;
23590;SDS011;11973;52.098;7.582;2023-07-29T16:33:39;0.50;;;0.50;;
23590;SDS011;11973;52.098;7.582;2023-07-29T16:36:05;0.50;;;0.50;;
23590;SDS011;11973;52.098;7.582;2023-07-29T16:38:30;0.40;;;0.40;;
23590;SDS011;11973;52.098;7.582;2023-07-29T16:40:56;0.52;;;0.52;;
23590;SDS011;11973;52.098;7.582;2023-07-29T16:43:22;1.13;;;0.45;;
23590;SDS011;11973;52.098;7.582;2023-07-29T16:45:47;0.52;;;0.50;;
23590;SDS011;11973;52.098;7.582;2023-07-29T16:48:13;0.50;;;0.50;;
23590;SDS011;11973;52.098;7.582;2023-07-29T16:50:39;0.52;;;0.52;;
23590;SDS011;11973;52.098;7.582;2023-07-29T16:53:05;0.60;;;0.60;;
23590;SDS011;11973;52.098;7.582;2023-07-29T16:55:30;0.50;;;0.50;;
23590;SDS011;11973;52.098;7.582;2023-07-29T16:57:56;0.60;;;0.50;;
23590;SDS011;11973;52.098;7.582;2023-07-29T17:00:22;2.13;;;0.60;;
23590;SDS011;11973;52.098;7.582;2023-07-29T17:02:47;0.55;;;0.55;;
23590;SDS011;11973;52.098;7.582;2023-07-29T17:05:13;0.75;;;0.60;;
23590;SDS011;11973;52.098;7.582;2023-07-29T17:07:39;0.60;;;0.60;;
23590;SDS011;11973;52.098;7.582;2023-07-29T17:10:05;0.73;;;0.60;;
23590;SDS011;11973;52.098;7.582;2023-07-29T17:12:31;1.00;;;0.60;;
23590;SDS011;11973;52.098;7.582;2023-07-29T17:14:57;0.60;;;0.60;;
23590;SDS011;11973;52.098;7.582;2023-07-29T17:17:23;0.50;;;0.50;;
23590;SDS011;11973;52.098;7.582;2023-07-29T17:19:48;1.00;;;0.60;;
23590;SDS011;11973;52.098;7.582;2023-07-29T17:22:14;0.65;;;0.65;;
23590;SDS011;11973;52.098;7.582;2023-07-29T17:24:40;0.52;;;0.52;;
23590;SDS011;11973;52.098;7.582;2023-07-29T17:27:06;0.50;;;0.50;;
23590;SDS011;11973;52.098;7.582;2023-07-29T17:29:32;0.70;;;0.60;;
23590;SDS011;11973;52.098;7.582;2023-07-29T17:31:58;0.65;;;0.65;;
23590;SDS011;11973;52.098;7.582;2023-07-29T17:34:23;0.70;;;0.70;;
23590;SDS011;11973;52.098;7.582;2023-07-29T17:36:49;0.70;;;0.70;;
23590;SDS011;11973;52.098;7.582;2023-07-29T17:39:15;0.70;;;0.70;;
23590;SDS011;11973;52.098;7.582;2023-07-29T17:41:40;0.63;;;0.63;;
23590;SDS011;11973;52.098;7.582;2023-07-29T17:44:09;0.63;;;0.60;;
23590;SDS011;11973;52.098;7.582;2023-07-29T17:46:35;0.98;;;0.60;;
23590;SDS011;11973;52.098;7.582;2023-07-29T17:49:01;1.27;;;0.57;;
23590;SDS011;11973;52.098;7.582;2023-07-29T17:51:26;0.60;;;0.60;;
23590;SDS011;11973;52.098;7.582;2023-07-29T17:53:52;1.17;;;0.65;;
23590;SDS011;11973;52.098;7.582;2023-07-29T17:56:18;0.60;;;0.60;;
23590;SDS011;11973;52.098;7.582;2023-07-29T17:58:44;0.60;;;0.60;;
23590;SDS011;11973;52.098;7.582;2023-07-29T18:01:09;1.05;;;0.70;;
23590;SDS011;11973;52.098;7.582;2023-07-29T18:03:35;1.17;;;0.70;;
23590;SDS011;11973;52.098;7.582;2023-07-29T18:06:01;0.65;;;0.65;;
23590;SDS011;11973;52.098;7.582;2023-07-29T18:08:26;3.10;;;1.00;;
23590;SDS011;11973;52.098;7.582;2023-07-29T18:10:52;0.95;;;0.70;;
23590;SDS011;11973;52.098;7.582;2023-07-29T18:13:18;0.68;;;0.68;;
23590;SDS011;11973;52.098;7.582;2023-07-29T18:15:49;0.90;;;0.90;;
23590;SDS011;11973;52.098;7.582;2023-07-29T18:18:16;0.90;;;0.70;;
23590;SDS011;11973;52.098;7.582;2023-07-29T18:20:42;0.82;;;0.82;;
23590;SDS011;11973;52.098;7.582;2023-07-29T18:23:09;0.70;;;0.70;;
23590;SDS011;11973;52.098;7.582;2023-07-29T18:25:35;0.80;;;0.80;;
23590;SDS011;11973;52.098;7.582;2023-07-29T18:28:01;0.68;;;0.68;;
23590;SDS011;11973;52.098;7.582;2023-07-29T18:30:27;1.63;;;0.80;;
23590;SDS011;11973;52.098;7.582;2023-07-29T18:32:53;1.05;;;1.05;;
23590;SDS011;11973;52.098;7.582;2023-07-29T18:35:19;1.13;;;1.13;;
23590;SDS011;11973;52.098;7.582;2023-07-29T18:37:45;1.10;;;1.10;;
23590;SDS011;11973;52.098;7.582;2023-07-29T18:40:12;1.10;;;1.10;;
23590;SDS011;11973;52.098;7.582;2023-07-29T18:42:38;1.30;;;1.30;;
23590;SDS011;11973;52.098;7.582;2023-07-29T18:45:04;1.40;;;1.40;;
23590;SDS011;11973;52.098;7.582;2023-07-29T18:47:31;1.38;;;1.25;;
23590;SDS011;11973;52.098;7.582;2023-07-29T18:49:56;1.70;;;1.70;;
23590;SDS011;11973;52.098;7.582;2023-07-29T18:52:23;1.92;;;1.92;;
23590;SDS011;11973;52.098;7.582;2023-07-29T18:54:50;1.90;;;1.90;;
23590;SDS011;11973;52.098;7.582;2023-07-29T18:57:16;2.00;;;1.95;;
23590;SDS011;11973;52.098;7.582;2023-07-29T18:59:42;2.35;;;2.25;;
23590;SDS011;11973;52.098;7.582;2023-07-29T19:02:08;2.33;;;2.33;;
23590;SDS011;11973;52.098;7.582;2023-07-29T19:04:34;2.67;;;2.67;;
23590;SDS011;11973;52.098;7.582;2023-07-29T19:07:00;2.55;;;2.42;;
23590;SDS011;11973;52.098;7.582;2023-07-29T19:09:26;2.75;;;2.60;;
23590;SDS011;11973;52.098;7.582;2023-07-29T19:11:52;2.30;;;2.30;;
23590;SDS011;11973;52.098;7.582;2023-07-29T19:14:18;2.30;;;2.30;;
23590;SDS011;11973;52.098;7.582;2023-07-29T19:16:44;2.40;;;2.40;;
23590;SDS011;11973;52.098;7.582;2023-07-29T19:19:10;2.58;;;2.58;;
23590;SDS011;11973;52.098;7.582;2023-07-29T19:21:35;2.50;;;2.50;;
23590;SDS011;11973;52.098;7.582;2023-07-29T19:24:01;2.53;;;2.53;;
23590;SDS011;11973;52.098;7.582;2023-07-29T19:26:27;2.63;;;2.53;;
23590;SDS011;11973;52.098;7.582;2023-07-29T19:28:52;2.53;;;2.50;;
23590;SDS011;11973;52.098;7.582;2023-07-29T19:31:19;2.70;;;2.70;;
23590;SDS011;11973;52.098;7.582;2023-07-29T19:33:44;2.60;;;2.50;;
23590;SDS011;11973;52.098;7.582;2023-07-29T19:36:11;2.47;;;2.47;;
23590;SDS011;11973;52.098;7.582;2023-07-29T19:38:37;2.25;;;2.25;;
23590;SDS011;11973;52.098;7.582;2023-07-29T19:41:03;2.90;;;2.80;;
23590;SDS011;11973;52.098;7.582;2023-07-29T19:43:29;2.63;;;2.63;;
23590;SDS011;11973;52.098;7.582;2023-07-29T19:45:59;2.35;;;2.30;;
23590;SDS011;11973;52.098;7.582;2023-07-29T19:48:26;2.95;;;2.72;;
23590;SDS011;11973;52.098;7.582;2023-07-29T19:50:52;2.92;;;2.72;;
23590;SDS011;11973;52.098;7.582;2023-07-29T19:53:18;2.90;;;2.90;;
23590;SDS011;11973;52.098;7.582;2023-07-29T19:55:44;3.08;;;2.85;;
23590;SDS011;11973;52.098;7.582;2023-07-29T19:58:16;3.83;;;2.80;;
23590;SDS011;11973;52.098;7.582;2023-07-29T20:00:43;3.00;;;2.90;;